DLH648 UAAA-UACC
Flight info
| Callsign | DLH648 |
|---|---|
| Flight time | 1h 17m |
| Altitude | 40000 |
| Route | ETEDA1B ETEDA W333 KRG DCT BEDKA BEDKA1K |
| Aircraft | A343/H-SDE2E3FGHIJ4J5M1RWXY/LB1D1 |
Departure
| Time | 2026-04-29 21:36 |
|---|---|
| Airport | Almaty International Airport (UAAA) |
Arrival
| Time | 2026-04-29 22:54 |
|---|---|
| Airport | Nursultan Nazarbayev International Airport (UACC) |
| Time | Latitude | Longitude | Altitude | Speed | Heading |
|---|---|---|---|---|---|
| 2026-04-29 21:13 | 43.34962 | 77.01301 | 2233 ft | 0 kts | 246° |
| 2026-04-29 21:23 | 43.34965 | 77.01310 | 2233 ft | 2 kts | 245° |
| 2026-04-29 21:23 | 43.34974 | 77.01335 | 2233 ft | 3 kts | 242° |
| 2026-04-29 21:23 | 43.34983 | 77.01359 | 2233 ft | 3 kts | 243° |
| 2026-04-29 21:24 | 43.34992 | 77.01384 | 2233 ft | 3 kts | 240° |
| 2026-04-29 21:24 | 43.35003 | 77.01404 | 2233 ft | 3 kts | 210° |
| 2026-04-29 21:24 | 43.35020 | 77.01411 | 2233 ft | 3 kts | 169° |
| 2026-04-29 21:24 | 43.35031 | 77.01407 | 2233 ft | 2 kts | 157° |
| 2026-04-29 21:25 | 43.35048 | 77.01397 | 2233 ft | 3 kts | 157° |
| 2026-04-29 21:25 | 43.35067 | 77.01386 | 2233 ft | 3 kts | 157° |
| 2026-04-29 21:25 | 43.35083 | 77.01377 | 2233 ft | 1 kts | 157° |
| 2026-04-29 21:25 | 43.35085 | 77.01376 | 2233 ft | 0 kts | 157° |
| 2026-04-29 21:26 | 43.35085 | 77.01377 | 2233 ft | 0 kts | 157° |
| 2026-04-29 21:28 | 43.35084 | 77.01377 | 2233 ft | 0 kts | 157° |
| 2026-04-29 21:29 | 43.35055 | 77.01394 | 2233 ft | 11 kts | 157° |
| 2026-04-29 21:29 | 43.34968 | 77.01444 | 2233 ft | 11 kts | 157° |
| 2026-04-29 21:29 | 43.34962 | 77.01448 | 2233 ft | 1 kts | 157° |
| 2026-04-29 21:29 | 43.34937 | 77.01462 | 2233 ft | 0 kts | 156° |
| 2026-04-29 21:30 | 43.34937 | 77.01463 | 2233 ft | 1 kts | 156° |
| 2026-04-29 21:31 | 43.34899 | 77.01486 | 2233 ft | 10 kts | 156° |
| 2026-04-29 21:31 | 43.34837 | 77.01504 | 2233 ft | 9 kts | 187° |
| 2026-04-29 21:31 | 43.34797 | 77.01488 | 2233 ft | 9 kts | 199° |
| 2026-04-29 21:31 | 43.34733 | 77.01456 | 2233 ft | 10 kts | 200° |
| 2026-04-29 21:32 | 43.34679 | 77.01441 | 2233 ft | 6 kts | 173° |
| 2026-04-29 21:32 | 43.34634 | 77.01460 | 2233 ft | 7 kts | 169° |
| 2026-04-29 21:32 | 43.34579 | 77.01470 | 2233 ft | 8 kts | 167° |
| 2026-04-29 21:32 | 43.34523 | 77.01503 | 2233 ft | 9 kts | 155° |
| 2026-04-29 21:33 | 43.34461 | 77.01542 | 2234 ft | 10 kts | 155° |
| 2026-04-29 21:33 | 43.34383 | 77.01591 | 2234 ft | 14 kts | 156° |
| 2026-04-29 21:33 | 43.34292 | 77.01648 | 2234 ft | 13 kts | 155° |
| 2026-04-29 21:33 | 43.34209 | 77.01701 | 2235 ft | 13 kts | 155° |
| 2026-04-29 21:34 | 43.34153 | 77.01762 | 2234 ft | 7 kts | 127° |
| 2026-04-29 21:34 | 43.34153 | 77.01805 | 2233 ft | 5 kts | 70° |
| 2026-04-29 21:34 | 43.34170 | 77.01840 | 2234 ft | 0 kts | 55° |
| 2026-04-29 21:35 | 43.34260 | 77.02018 | 2233 ft | 55 kts | 55° |
| 2026-04-29 21:36 | 43.34594 | 77.02696 | 2235 ft | 114 kts | 56° |
| 2026-04-29 21:36 | 43.35140 | 77.03793 | 2233 ft | 161 kts | 56° |
| 2026-04-29 21:36 | 43.35842 | 77.05195 | 2437 ft | 185 kts | 55° |
| 2026-04-29 21:36 | 43.36564 | 77.06639 | 3137 ft | 183 kts | 56° |
| 2026-04-29 21:37 | 43.37316 | 77.08116 | 3666 ft | 200 kts | 54° |
| 2026-04-29 21:37 | 43.38202 | 77.09810 | 3925 ft | 237 kts | 54° |
| 2026-04-29 21:37 | 43.39211 | 77.11736 | 4593 ft | 255 kts | 54° |
| 2026-04-29 21:37 | 43.40377 | 77.13556 | 5501 ft | 261 kts | 37° |
| 2026-04-29 21:38 | 43.42070 | 77.14459 | 6380 ft | 269 kts | 3° |
| 2026-04-29 21:38 | 43.43944 | 77.14117 | 7198 ft | 277 kts | 345° |
| 2026-04-29 21:38 | 43.45820 | 77.13389 | 8046 ft | 284 kts | 343° |
| 2026-04-29 21:38 | 43.47742 | 77.12629 | 8869 ft | 290 kts | 343° |
| 2026-04-29 21:39 | 43.49698 | 77.11884 | 9746 ft | 294 kts | 344° |
| 2026-04-29 21:39 | 43.51665 | 77.11034 | 10453 ft | 304 kts | 336° |
| 2026-04-29 21:39 | 43.53416 | 77.09266 | 10776 ft | 324 kts | 309° |
| 2026-04-29 21:39 | 43.54420 | 77.06435 | 11180 ft | 338 kts | 281° |
| 2026-04-29 21:40 | 43.54629 | 77.03174 | 11791 ft | 345 kts | 271° |
| 2026-04-29 21:40 | 43.54675 | 76.99843 | 12430 ft | 351 kts | 271° |
| 2026-04-29 21:40 | 43.54976 | 76.96493 | 13046 ft | 356 kts | 285° |
| 2026-04-29 21:40 | 43.56081 | 76.93428 | 13667 ft | 361 kts | 307° |
| 2026-04-29 21:41 | 43.57722 | 76.90847 | 14265 ft | 365 kts | 313° |
| 2026-04-29 21:41 | 43.59503 | 76.88319 | 14835 ft | 369 kts | 314° |
| 2026-04-29 21:41 | 43.61310 | 76.85773 | 15385 ft | 373 kts | 314° |
| 2026-04-29 21:41 | 43.63159 | 76.83238 | 15908 ft | 377 kts | 318° |
| 2026-04-29 21:42 | 43.65307 | 76.81131 | 16416 ft | 381 kts | 332° |
| 2026-04-29 21:42 | 43.67770 | 76.79713 | 16921 ft | 385 kts | 340° |
| 2026-04-29 21:42 | 43.70331 | 76.78563 | 17398 ft | 388 kts | 342° |
| 2026-04-29 21:42 | 43.72924 | 76.77462 | 17858 ft | 392 kts | 342° |
| 2026-04-29 21:43 | 43.75544 | 76.76366 | 18302 ft | 395 kts | 343° |
| 2026-04-29 21:43 | 43.78181 | 76.75266 | 18731 ft | 398 kts | 343° |
| 2026-04-29 21:43 | 43.80843 | 76.74157 | 19149 ft | 401 kts | 343° |
| 2026-04-29 21:43 | 43.83530 | 76.73038 | 19552 ft | 404 kts | 343° |
| 2026-04-29 21:44 | 43.86229 | 76.71914 | 19936 ft | 407 kts | 343° |
| 2026-04-29 21:44 | 43.88951 | 76.70779 | 20305 ft | 410 kts | 343° |
| 2026-04-29 21:44 | 43.91692 | 76.69635 | 20658 ft | 412 kts | 343° |
| 2026-04-29 21:44 | 43.94449 | 76.68483 | 20997 ft | 415 kts | 343° |
| 2026-04-29 21:45 | 43.97224 | 76.67323 | 21323 ft | 418 kts | 343° |
| 2026-04-29 21:45 | 44.00013 | 76.66156 | 21636 ft | 420 kts | 343° |
| 2026-04-29 21:45 | 44.02818 | 76.64981 | 21936 ft | 422 kts | 343° |
| 2026-04-29 21:45 | 44.05637 | 76.63800 | 22224 ft | 425 kts | 343° |
| 2026-04-29 21:46 | 44.08443 | 76.62622 | 22497 ft | 427 kts | 343° |
| 2026-04-29 21:46 | 44.11291 | 76.61426 | 22763 ft | 429 kts | 343° |
| 2026-04-29 21:46 | 44.14161 | 76.60219 | 23019 ft | 431 kts | 343° |
| 2026-04-29 21:46 | 44.17047 | 76.59054 | 23261 ft | 433 kts | 345° |
| 2026-04-29 21:47 | 44.19983 | 76.58079 | 23497 ft | 435 kts | 347° |
| 2026-04-29 21:47 | 44.22949 | 76.57133 | 23723 ft | 437 kts | 347° |
| 2026-04-29 21:47 | 44.25918 | 76.56172 | 23939 ft | 439 kts | 346° |
| 2026-04-29 21:47 | 44.28895 | 76.55194 | 24145 ft | 440 kts | 346° |
| 2026-04-29 21:48 | 44.31882 | 76.54202 | 24343 ft | 442 kts | 346° |
| 2026-04-29 21:48 | 44.34840 | 76.52980 | 24531 ft | 443 kts | 340° |
| 2026-04-29 21:48 | 44.37737 | 76.51480 | 24715 ft | 445 kts | 338° |
| 2026-04-29 21:48 | 44.40604 | 76.49842 | 24891 ft | 446 kts | 337° |
| 2026-04-29 21:49 | 44.43470 | 76.48133 | 25061 ft | 448 kts | 336° |
| 2026-04-29 21:49 | 44.46294 | 76.46429 | 25222 ft | 449 kts | 336° |
| 2026-04-29 21:49 | 44.49167 | 76.44701 | 25379 ft | 450 kts | 336° |
| 2026-04-29 21:49 | 44.52061 | 76.42974 | 25530 ft | 452 kts | 336° |
| 2026-04-29 21:50 | 44.54956 | 76.41259 | 25676 ft | 453 kts | 337° |
| 2026-04-29 21:50 | 44.57866 | 76.39544 | 25816 ft | 454 kts | 337° |
| 2026-04-29 21:50 | 44.60782 | 76.37829 | 25951 ft | 455 kts | 337° |
| 2026-04-29 21:50 | 44.63708 | 76.36109 | 26082 ft | 456 kts | 337° |
| 2026-04-29 21:51 | 44.66641 | 76.34383 | 26208 ft | 457 kts | 337° |
| 2026-04-29 21:51 | 44.69582 | 76.32651 | 26331 ft | 458 kts | 337° |
| 2026-04-29 21:51 | 44.75477 | 76.29171 | 26567 ft | 460 kts | 337° |
| 2026-04-29 21:52 | 44.78434 | 76.27421 | 26680 ft | 461 kts | 337° |
| 2026-04-29 21:52 | 44.81399 | 76.25665 | 26790 ft | 462 kts | 337° |
| 2026-04-29 21:52 | 44.84364 | 76.23906 | 26896 ft | 463 kts | 337° |
| 2026-04-29 21:52 | 44.87339 | 76.22140 | 26999 ft | 464 kts | 337° |
| 2026-04-29 21:53 | 44.90322 | 76.20367 | 27099 ft | 465 kts | 337° |
| 2026-04-29 21:53 | 44.93310 | 76.18589 | 27196 ft | 466 kts | 336° |
| 2026-04-29 21:53 | 44.96263 | 76.16830 | 27291 ft | 467 kts | 336° |
| 2026-04-29 21:53 | 44.99262 | 76.15042 | 27384 ft | 468 kts | 336° |
| 2026-04-29 21:54 | 45.02262 | 76.13250 | 27474 ft | 468 kts | 336° |
| 2026-04-29 21:54 | 45.05266 | 76.11454 | 27562 ft | 469 kts | 336° |
| 2026-04-29 21:54 | 45.08273 | 76.09655 | 27647 ft | 470 kts | 336° |
| 2026-04-29 21:54 | 45.11291 | 76.07847 | 27730 ft | 471 kts | 336° |
| 2026-04-29 21:55 | 45.14309 | 76.06037 | 27812 ft | 471 kts | 336° |
| 2026-04-29 21:55 | 45.17332 | 76.04222 | 27891 ft | 472 kts | 336° |
| 2026-04-29 21:55 | 45.20360 | 76.02401 | 27968 ft | 473 kts | 336° |
| 2026-04-29 21:55 | 45.23386 | 76.00580 | 28044 ft | 473 kts | 336° |
| 2026-04-29 21:56 | 45.29466 | 75.96914 | 28188 ft | 475 kts | 336° |
| 2026-04-29 21:56 | 45.35554 | 75.93235 | 28324 ft | 476 kts | 336° |
| 2026-04-29 21:57 | 45.41615 | 75.89563 | 28451 ft | 477 kts | 336° |
| 2026-04-29 21:57 | 45.47726 | 75.85852 | 28578 ft | 478 kts | 336° |
| 2026-04-29 21:58 | 45.53853 | 75.82124 | 28692 ft | 479 kts | 336° |
| 2026-04-29 21:58 | 45.59994 | 75.78377 | 28802 ft | 480 kts | 336° |
| 2026-04-29 21:59 | 45.66137 | 75.74621 | 28906 ft | 481 kts | 336° |
| 2026-04-29 21:59 | 45.72295 | 75.70846 | 29008 ft | 482 kts | 336° |
| 2026-04-29 22:00 | 45.78468 | 75.67057 | 29102 ft | 483 kts | 336° |
| 2026-04-29 22:00 | 45.84644 | 75.63255 | 29193 ft | 483 kts | 336° |
| 2026-04-29 22:01 | 45.90833 | 75.59434 | 29277 ft | 484 kts | 336° |
| 2026-04-29 22:01 | 45.97027 | 75.55603 | 29358 ft | 485 kts | 336° |
| 2026-04-29 22:02 | 46.03189 | 75.51782 | 29434 ft | 486 kts | 336° |
| 2026-04-29 22:02 | 46.09396 | 75.47924 | 29509 ft | 486 kts | 336° |
| 2026-04-29 22:03 | 46.15622 | 75.44045 | 29578 ft | 487 kts | 336° |
| 2026-04-29 22:03 | 46.21845 | 75.40158 | 29644 ft | 488 kts | 336° |
| 2026-04-29 22:04 | 46.28083 | 75.36279 | 29707 ft | 488 kts | 336° |
| 2026-04-29 22:04 | 46.34328 | 75.32395 | 29766 ft | 489 kts | 336° |
| 2026-04-29 22:05 | 46.40578 | 75.28497 | 29825 ft | 489 kts | 336° |
| 2026-04-29 22:06 | 46.49920 | 75.22651 | 29904 ft | 490 kts | 336° |
| 2026-04-29 22:06 | 46.56182 | 75.18719 | 29955 ft | 490 kts | 336° |
| 2026-04-29 22:07 | 46.62446 | 75.14777 | 30003 ft | 491 kts | 336° |
| 2026-04-29 22:07 | 46.68724 | 75.10816 | 30050 ft | 491 kts | 336° |
| 2026-04-29 22:08 | 46.75004 | 75.06843 | 30092 ft | 491 kts | 336° |
| 2026-04-29 22:08 | 46.81275 | 75.02866 | 30134 ft | 492 kts | 336° |
| 2026-04-29 22:09 | 46.87562 | 74.98869 | 30173 ft | 492 kts | 336° |
| 2026-04-29 22:09 | 46.93865 | 74.95111 | 30211 ft | 493 kts | 339° |
| 2026-04-29 22:10 | 47.00312 | 74.91661 | 30247 ft | 493 kts | 340° |
| 2026-04-29 22:10 | 47.06756 | 74.88202 | 30282 ft | 493 kts | 339° |
| 2026-04-29 22:11 | 47.13191 | 74.84672 | 30316 ft | 493 kts | 339° |
| 2026-04-29 22:11 | 47.19583 | 74.81123 | 30348 ft | 494 kts | 339° |
| 2026-04-29 22:12 | 47.26017 | 74.77538 | 30379 ft | 494 kts | 339° |
| 2026-04-29 22:12 | 47.32446 | 74.73947 | 30407 ft | 494 kts | 339° |
| 2026-04-29 22:13 | 47.38878 | 74.70348 | 30436 ft | 495 kts | 339° |
| 2026-04-29 22:13 | 47.45314 | 74.66737 | 30463 ft | 495 kts | 339° |
| 2026-04-29 22:14 | 47.51752 | 74.63116 | 30490 ft | 495 kts | 339° |
| 2026-04-29 22:14 | 47.58201 | 74.59490 | 30514 ft | 495 kts | 339° |
| 2026-04-29 22:15 | 47.64648 | 74.55878 | 30538 ft | 495 kts | 339° |
| 2026-04-29 22:15 | 47.71062 | 74.52277 | 30560 ft | 496 kts | 339° |
| 2026-04-29 22:16 | 47.77519 | 74.48639 | 30582 ft | 496 kts | 339° |
| 2026-04-29 22:16 | 47.83964 | 74.44997 | 30602 ft | 496 kts | 339° |
| 2026-04-29 22:17 | 47.89330 | 74.41956 | 30618 ft | 496 kts | 339° |
| 2026-04-29 22:17 | 47.96870 | 74.37673 | 30639 ft | 496 kts | 339° |
| 2026-04-29 22:18 | 48.03334 | 74.33990 | 30659 ft | 496 kts | 339° |
| 2026-04-29 22:18 | 48.08697 | 74.30927 | 30674 ft | 496 kts | 339° |
| 2026-04-29 22:19 | 48.15150 | 74.27236 | 30689 ft | 497 kts | 339° |
| 2026-04-29 22:19 | 48.22664 | 74.22980 | 30708 ft | 497 kts | 339° |
| 2026-04-29 22:20 | 48.29135 | 74.19317 | 30723 ft | 497 kts | 339° |
| 2026-04-29 22:20 | 48.34554 | 74.16238 | 30736 ft | 497 kts | 339° |
| 2026-04-29 22:21 | 48.40982 | 74.12573 | 30753 ft | 497 kts | 339° |
| 2026-04-29 22:21 | 48.47446 | 74.08875 | 30767 ft | 497 kts | 339° |
| 2026-04-29 22:22 | 48.53920 | 74.05162 | 30780 ft | 497 kts | 339° |
| 2026-04-29 22:22 | 48.60389 | 74.01442 | 30795 ft | 497 kts | 339° |
| 2026-04-29 22:23 | 48.66854 | 73.97714 | 30806 ft | 497 kts | 339° |
| 2026-04-29 22:23 | 48.73317 | 73.93976 | 30820 ft | 497 kts | 339° |
| 2026-04-29 22:24 | 48.79786 | 73.90224 | 30831 ft | 498 kts | 339° |
| 2026-04-29 22:24 | 48.86251 | 73.86465 | 30841 ft | 498 kts | 339° |
| 2026-04-29 22:25 | 48.92721 | 73.82692 | 30856 ft | 498 kts | 339° |
| 2026-04-29 22:25 | 48.99193 | 73.78909 | 30865 ft | 498 kts | 339° |
| 2026-04-29 22:26 | 49.05613 | 73.75136 | 30875 ft | 498 kts | 338° |
| 2026-04-29 22:26 | 49.12074 | 73.71314 | 30886 ft | 498 kts | 338° |
| 2026-04-29 22:27 | 49.18531 | 73.67486 | 30592 ft | 496 kts | 338° |
| 2026-04-29 22:27 | 49.21736 | 73.65583 | 30344 ft | 494 kts | 338° |
| 2026-04-29 22:27 | 49.24939 | 73.63680 | 30098 ft | 492 kts | 338° |
| 2026-04-29 22:28 | 49.31309 | 73.59886 | 29999 ft | 490 kts | 338° |
| 2026-04-29 22:28 | 49.37656 | 73.56096 | 30000 ft | 489 kts | 338° |
| 2026-04-29 22:29 | 49.43885 | 73.52366 | 30010 ft | 467 kts | 338° |
| 2026-04-29 22:29 | 49.49822 | 73.48802 | 30002 ft | 459 kts | 338° |
| 2026-04-29 22:30 | 49.55777 | 73.45216 | 30000 ft | 459 kts | 338° |
| 2026-04-29 22:30 | 49.61731 | 73.41622 | 30000 ft | 459 kts | 338° |
| 2026-04-29 22:31 | 49.67505 | 73.37464 | 30001 ft | 459 kts | 326° |
| 2026-04-29 22:31 | 49.69963 | 73.34341 | 29996 ft | 458 kts | 314° |
| 2026-04-29 22:31 | 49.72051 | 73.30582 | 29781 ft | 465 kts | 308° |
| 2026-04-29 22:31 | 49.74041 | 73.26578 | 29518 ft | 474 kts | 307° |
| 2026-04-29 22:32 | 49.76042 | 73.22479 | 29256 ft | 481 kts | 307° |
| 2026-04-29 22:32 | 49.78057 | 73.18339 | 29000 ft | 481 kts | 307° |
| 2026-04-29 22:32 | 49.80068 | 73.14206 | 28750 ft | 478 kts | 307° |
| 2026-04-29 22:32 | 49.82060 | 73.10107 | 28501 ft | 476 kts | 307° |
| 2026-04-29 22:33 | 49.84045 | 73.06018 | 28253 ft | 473 kts | 307° |
| 2026-04-29 22:33 | 49.86018 | 73.01949 | 28004 ft | 471 kts | 306° |
| 2026-04-29 22:33 | 49.87982 | 72.97891 | 27755 ft | 469 kts | 306° |
| 2026-04-29 22:33 | 49.89935 | 72.93853 | 27506 ft | 467 kts | 306° |
| 2026-04-29 22:34 | 49.91851 | 72.89882 | 27261 ft | 465 kts | 306° |
| 2026-04-29 22:34 | 49.93783 | 72.85874 | 27012 ft | 462 kts | 306° |
| 2026-04-29 22:34 | 49.95704 | 72.81884 | 26763 ft | 460 kts | 306° |
| 2026-04-29 22:34 | 49.97615 | 72.77905 | 26514 ft | 458 kts | 306° |
| 2026-04-29 22:35 | 49.99516 | 72.73943 | 26265 ft | 456 kts | 306° |
| 2026-04-29 22:35 | 50.01406 | 72.69999 | 25995 ft | 453 kts | 306° |
| 2026-04-29 22:35 | 50.03271 | 72.66100 | 25554 ft | 445 kts | 306° |
| 2026-04-29 22:35 | 50.05106 | 72.62259 | 25012 ft | 440 kts | 306° |
| 2026-04-29 22:36 | 50.06919 | 72.58458 | 24458 ft | 435 kts | 306° |
| 2026-04-29 22:36 | 50.08711 | 72.54696 | 23923 ft | 430 kts | 306° |
| 2026-04-29 22:36 | 50.10482 | 72.50971 | 23396 ft | 425 kts | 306° |
| 2026-04-29 22:36 | 50.12236 | 72.47279 | 22858 ft | 421 kts | 306° |
| 2026-04-29 22:37 | 50.13970 | 72.43624 | 22327 ft | 417 kts | 306° |
| 2026-04-29 22:37 | 50.15682 | 72.40009 | 21803 ft | 413 kts | 306° |
| 2026-04-29 22:37 | 50.17376 | 72.36426 | 21284 ft | 409 kts | 306° |
| 2026-04-29 22:37 | 50.19054 | 72.32875 | 20771 ft | 405 kts | 306° |
| 2026-04-29 22:38 | 50.20717 | 72.29349 | 20258 ft | 401 kts | 306° |
| 2026-04-29 22:38 | 50.22367 | 72.25848 | 19744 ft | 398 kts | 306° |
| 2026-04-29 22:38 | 50.24010 | 72.22452 | 19274 ft | 397 kts | 307° |
| 2026-04-29 22:38 | 50.25692 | 72.19048 | 18797 ft | 392 kts | 307° |
| 2026-04-29 22:39 | 50.27348 | 72.15692 | 18350 ft | 387 kts | 307° |
| 2026-04-29 22:39 | 50.28978 | 72.12379 | 17905 ft | 382 kts | 307° |
| 2026-04-29 22:39 | 50.30587 | 72.09098 | 17459 ft | 377 kts | 307° |
| 2026-04-29 22:39 | 50.32171 | 72.05861 | 17013 ft | 373 kts | 307° |
| 2026-04-29 22:40 | 50.33740 | 72.02649 | 16566 ft | 369 kts | 307° |
| 2026-04-29 22:40 | 50.35288 | 71.99476 | 16119 ft | 365 kts | 307° |
| 2026-04-29 22:40 | 50.36824 | 71.96322 | 15671 ft | 362 kts | 307° |
| 2026-04-29 22:40 | 50.38345 | 71.93195 | 15223 ft | 359 kts | 307° |
| 2026-04-29 22:41 | 50.39848 | 71.90102 | 14775 ft | 356 kts | 307° |
| 2026-04-29 22:41 | 50.41323 | 71.87062 | 14368 ft | 352 kts | 307° |
| 2026-04-29 22:41 | 50.42794 | 71.84026 | 13996 ft | 347 kts | 307° |
| 2026-04-29 22:41 | 50.44249 | 71.81021 | 13624 ft | 345 kts | 307° |
| 2026-04-29 22:42 | 50.45689 | 71.78042 | 13251 ft | 341 kts | 307° |
| 2026-04-29 22:42 | 50.47119 | 71.75089 | 12879 ft | 337 kts | 307° |
| 2026-04-29 22:42 | 50.48528 | 71.72172 | 12508 ft | 333 kts | 307° |
| 2026-04-29 22:42 | 50.49906 | 71.69309 | 12137 ft | 325 kts | 307° |
| 2026-04-29 22:43 | 50.51252 | 71.66510 | 11769 ft | 317 kts | 306° |
| 2026-04-29 22:43 | 50.52568 | 71.63771 | 11400 ft | 310 kts | 306° |
| 2026-04-29 22:43 | 50.53844 | 71.61114 | 11031 ft | 300 kts | 306° |
| 2026-04-29 22:43 | 50.55081 | 71.58534 | 10664 ft | 291 kts | 306° |
| 2026-04-29 22:44 | 50.56282 | 71.56031 | 10298 ft | 282 kts | 306° |
| 2026-04-29 22:44 | 50.57454 | 71.53583 | 9995 ft | 279 kts | 306° |
| 2026-04-29 22:44 | 50.58620 | 71.51145 | 9696 ft | 278 kts | 306° |
| 2026-04-29 22:44 | 50.59780 | 71.48719 | 9397 ft | 276 kts | 306° |
| 2026-04-29 22:45 | 50.60933 | 71.46303 | 9097 ft | 275 kts | 306° |
| 2026-04-29 22:45 | 50.62077 | 71.43914 | 8797 ft | 271 kts | 306° |
| 2026-04-29 22:45 | 50.63191 | 71.41580 | 8500 ft | 263 kts | 306° |
| 2026-04-29 22:45 | 50.64260 | 71.39334 | 8209 ft | 257 kts | 306° |
| 2026-04-29 22:46 | 50.65346 | 71.37047 | 7910 ft | 257 kts | 306° |
| 2026-04-29 22:46 | 50.66406 | 71.34824 | 7614 ft | 257 kts | 307° |
| 2026-04-29 22:46 | 50.67646 | 71.32806 | 7311 ft | 257 kts | 323° |
| 2026-04-29 22:46 | 50.69174 | 71.31337 | 7014 ft | 257 kts | 331° |
| 2026-04-29 22:47 | 50.70761 | 71.30039 | 6714 ft | 257 kts | 332° |
| 2026-04-29 22:47 | 50.72351 | 71.28759 | 6414 ft | 256 kts | 332° |
| 2026-04-29 22:47 | 50.73927 | 71.27483 | 6168 ft | 253 kts | 332° |
| 2026-04-29 22:47 | 50.75482 | 71.26216 | 5944 ft | 250 kts | 332° |
| 2026-04-29 22:48 | 50.77014 | 71.24964 | 5721 ft | 246 kts | 332° |
| 2026-04-29 22:48 | 50.78524 | 71.23727 | 5498 ft | 243 kts | 332° |
| 2026-04-29 22:48 | 50.80018 | 71.22500 | 5279 ft | 240 kts | 332° |
| 2026-04-29 22:48 | 50.81489 | 71.21294 | 5079 ft | 237 kts | 332° |
| 2026-04-29 22:49 | 50.83015 | 71.20371 | 4849 ft | 235 kts | 348° |
| 2026-04-29 22:49 | 50.84634 | 71.20397 | 4601 ft | 234 kts | 14° |
| 2026-04-29 22:49 | 50.86080 | 71.21514 | 4356 ft | 232 kts | 38° |
| 2026-04-29 22:49 | 50.87262 | 71.23248 | 4108 ft | 231 kts | 46° |
| 2026-04-29 22:50 | 50.88394 | 71.25059 | 3857 ft | 230 kts | 45° |
| 2026-04-29 22:50 | 50.89523 | 71.26831 | 3684 ft | 225 kts | 44° |
| 2026-04-29 22:50 | 50.90598 | 71.28505 | 3668 ft | 213 kts | 44° |
| 2026-04-29 22:50 | 50.91606 | 71.30064 | 3696 ft | 195 kts | 44° |
| 2026-04-29 22:51 | 50.92578 | 71.31564 | 3540 ft | 194 kts | 44° |
| 2026-04-29 22:51 | 50.93534 | 71.33045 | 3271 ft | 188 kts | 44° |
| 2026-04-29 22:51 | 50.95277 | 71.35759 | 2791 ft | 164 kts | 44° |
| 2026-04-29 22:52 | 50.96067 | 71.36987 | 2577 ft | 154 kts | 44° |
| 2026-04-29 22:52 | 50.96799 | 71.38127 | 2386 ft | 141 kts | 44° |
| 2026-04-29 22:52 | 50.97483 | 71.39191 | 2201 ft | 136 kts | 44° |
| 2026-04-29 22:52 | 50.98157 | 71.40242 | 2021 ft | 136 kts | 44° |
| 2026-04-29 22:53 | 50.98831 | 71.41295 | 1836 ft | 136 kts | 45° |
| 2026-04-29 22:53 | 50.99502 | 71.42350 | 1651 ft | 136 kts | 45° |
| 2026-04-29 22:53 | 51.00182 | 71.43396 | 1456 ft | 136 kts | 44° |
| 2026-04-29 22:53 | 51.00856 | 71.44453 | 1278 ft | 136 kts | 44° |
| 2026-04-29 22:54 | 51.01515 | 71.45483 | 1174 ft | 123 kts | 44° |
| 2026-04-29 22:54 | 51.01996 | 71.46230 | 1173 ft | 71 kts | 44° |
| 2026-04-29 22:54 | 51.02261 | 71.46631 | 1172 ft | 42 kts | 44° |
| 2026-04-29 22:54 | 51.02403 | 71.46851 | 1174 ft | 24 kts | 44° |
| 2026-04-29 22:55 | 51.02472 | 71.46960 | 1174 ft | 11 kts | 43° |
| 2026-04-29 22:55 | 51.02496 | 71.46957 | 1174 ft | 4 kts | 328° |
| 2026-04-29 22:55 | 51.02558 | 71.46862 | 1173 ft | 17 kts | 315° |
| 2026-04-29 22:55 | 51.02617 | 71.46767 | 1173 ft | 7 kts | 314° |
| 2026-04-29 22:56 | 51.02657 | 71.46702 | 1173 ft | 9 kts | 314° |
| 2026-04-29 22:56 | 51.02701 | 71.46624 | 1173 ft | 7 kts | 305° |
| 2026-04-29 22:56 | 51.02714 | 71.46560 | 1173 ft | 7 kts | 299° |
| 2026-04-29 22:56 | 51.02743 | 71.46511 | 1173 ft | 5 kts | 315° |
| 2026-04-29 22:57 | 51.02761 | 71.46484 | 1173 ft | 2 kts | 316° |
| 2026-04-29 22:57 | 51.02768 | 71.46473 | 1173 ft | 1 kts | 316° |
| 2026-04-29 22:57 | 51.02774 | 71.46463 | 1173 ft | 1 kts | 315° |
| 2026-04-29 22:57 | 51.02777 | 71.46459 | 1173 ft | 0 kts | 315° |